sensor_id;sensor_type;location;lat;lon;timestamp;P1;durP1;ratioP1;P2;durP2;ratioP2
66542;SDS011;53395;37.360;-122.046;2023-07-24T00:01:14;16.75;;;4.10;;
66542;SDS011;53395;37.360;-122.046;2023-07-24T00:03:58;16.58;;;3.13;;
66542;SDS011;53395;37.360;-122.046;2023-07-24T00:06:43;15.18;;;3.35;;
66542;SDS011;53395;37.360;-122.046;2023-07-24T00:09:28;15.25;;;3.75;;
66542;SDS011;53395;37.360;-122.046;2023-07-24T00:14:57;18.88;;;3.90;;
66542;SDS011;53395;37.360;-122.046;2023-07-24T00:17:41;14.77;;;3.60;;
66542;SDS011;53395;37.360;-122.046;2023-07-24T00:20:26;16.58;;;3.75;;
66542;SDS011;53395;37.360;-122.046;2023-07-24T00:23:11;16.15;;;3.78;;
66542;SDS011;53395;37.360;-122.046;2023-07-24T00:25:56;19.35;;;3.83;;
66542;SDS011;53395;37.360;-122.046;2023-07-24T00:31:25;14.20;;;3.05;;
66542;SDS011;53395;37.360;-122.046;2023-07-24T00:34:09;18.30;;;4.05;;
66542;SDS011;53395;37.360;-122.046;2023-07-24T00:36:54;14.18;;;4.25;;
66542;SDS011;53395;37.360;-122.046;2023-07-24T00:39:38;18.95;;;9.85;;
66542;SDS011;53395;37.360;-122.046;2023-07-24T00:42:23;21.45;;;6.20;;
66542;SDS011;53395;37.360;-122.046;2023-07-24T00:45:07;25.45;;;13.52;;
66542;SDS011;53395;37.360;-122.046;2023-07-24T00:47:53;17.77;;;4.93;;
66542;SDS011;53395;37.360;-122.046;2023-07-24T00:53:22;17.02;;;3.63;;
66542;SDS011;53395;37.360;-122.046;2023-07-24T00:56:07;17.10;;;3.75;;
66542;SDS011;53395;37.360;-122.046;2023-07-24T00:58:51;18.27;;;4.03;;
66542;SDS011;53395;37.360;-122.046;2023-07-24T01:01:36;23.42;;;4.85;;
66542;SDS011;53395;37.360;-122.046;2023-07-24T01:04:22;15.73;;;3.80;;
66542;SDS011;53395;37.360;-122.046;2023-07-24T01:07:06;20.55;;;3.83;;
66542;SDS011;53395;37.360;-122.046;2023-07-24T01:09:51;17.10;;;3.78;;
66542;SDS011;53395;37.360;-122.046;2023-07-24T01:12:39;13.70;;;4.18;;
66542;SDS011;53395;37.360;-122.046;2023-07-24T01:18:13;15.75;;;3.63;;
66542;SDS011;53395;37.360;-122.046;2023-07-24T01:20:59;18.40;;;3.45;;
66542;SDS011;53395;37.360;-122.046;2023-07-24T01:26:36;14.65;;;3.58;;
66542;SDS011;53395;37.360;-122.046;2023-07-24T01:29:21;18.00;;;4.18;;
66542;SDS011;53395;37.360;-122.046;2023-07-24T01:32:05;14.13;;;3.20;;
66542;SDS011;53395;37.360;-122.046;2023-07-24T01:34:52;15.13;;;3.65;;
66542;SDS011;53395;37.360;-122.046;2023-07-24T01:37:37;13.65;;;3.88;;
66542;SDS011;53395;37.360;-122.046;2023-07-24T01:40:24;17.45;;;4.07;;
66542;SDS011;53395;37.360;-122.046;2023-07-24T01:43:09;15.50;;;3.65;;
66542;SDS011;53395;37.360;-122.046;2023-07-24T01:45:54;18.85;;;4.05;;
66542;SDS011;53395;37.360;-122.046;2023-07-24T01:48:38;17.10;;;4.30;;
66542;SDS011;53395;37.360;-122.046;2023-07-24T01:51:23;19.27;;;4.18;;
66542;SDS011;53395;37.360;-122.046;2023-07-24T01:54:07;17.05;;;4.20;;
66542;SDS011;53395;37.360;-122.046;2023-07-24T01:56:52;18.88;;;4.35;;
66542;SDS011;53395;37.360;-122.046;2023-07-24T01:59:37;20.02;;;3.85;;
66542;SDS011;53395;37.360;-122.046;2023-07-24T02:02:21;17.70;;;3.78;;
66542;SDS011;53395;37.360;-122.046;2023-07-24T02:05:06;22.70;;;5.28;;
66542;SDS011;53395;37.360;-122.046;2023-07-24T02:07:50;19.77;;;4.43;;
66542;SDS011;53395;37.360;-122.046;2023-07-24T02:10:36;21.15;;;4.50;;
66542;SDS011;53395;37.360;-122.046;2023-07-24T02:13:21;19.48;;;4.25;;
66542;SDS011;53395;37.360;-122.046;2023-07-24T02:16:05;16.92;;;4.18;;
66542;SDS011;53395;37.360;-122.046;2023-07-24T02:18:50;16.42;;;4.72;;
66542;SDS011;53395;37.360;-122.046;2023-07-24T02:21:35;23.85;;;4.22;;
66542;SDS011;53395;37.360;-122.046;2023-07-24T02:24:20;22.00;;;4.80;;
66542;SDS011;53395;37.360;-122.046;2023-07-24T02:27:05;20.20;;;4.60;;
66542;SDS011;53395;37.360;-122.046;2023-07-24T02:29:50;21.33;;;4.70;;
66542;SDS011;53395;37.360;-122.046;2023-07-24T02:32:35;22.55;;;4.32;;
66542;SDS011;53395;37.360;-122.046;2023-07-24T02:35:19;20.55;;;4.32;;
66542;SDS011;53395;37.360;-122.046;2023-07-24T02:38:04;20.42;;;4.25;;
66542;SDS011;53395;37.360;-122.046;2023-07-24T02:40:48;19.02;;;3.95;;
66542;SDS011;53395;37.360;-122.046;2023-07-24T02:43:33;17.10;;;4.53;;
66542;SDS011;53395;37.360;-122.046;2023-07-24T02:46:17;21.80;;;4.75;;
66542;SDS011;53395;37.360;-122.046;2023-07-24T02:49:02;18.50;;;4.05;;
66542;SDS011;53395;37.360;-122.046;2023-07-24T02:51:47;20.33;;;4.57;;
66542;SDS011;53395;37.360;-122.046;2023-07-24T02:54:33;20.73;;;4.95;;
66542;SDS011;53395;37.360;-122.046;2023-07-24T02:57:17;22.58;;;5.07;;
66542;SDS011;53395;37.360;-122.046;2023-07-24T03:00:02;21.50;;;4.55;;
66542;SDS011;53395;37.360;-122.046;2023-07-24T03:02:47;27.20;;;4.70;;
66542;SDS011;53395;37.360;-122.046;2023-07-24T03:05:33;19.30;;;4.30;;
66542;SDS011;53395;37.360;-122.046;2023-07-24T03:08:18;15.38;;;4.63;;
66542;SDS011;53395;37.360;-122.046;2023-07-24T03:11:04;16.25;;;4.45;;
66542;SDS011;53395;37.360;-122.046;2023-07-24T03:13:48;17.92;;;4.18;;
66542;SDS011;53395;37.360;-122.046;2023-07-24T03:16:33;24.00;;;4.90;;
66542;SDS011;53395;37.360;-122.046;2023-07-24T03:19:17;26.25;;;4.43;;
66542;SDS011;53395;37.360;-122.046;2023-07-24T03:22:03;18.13;;;4.32;;
66542;SDS011;53395;37.360;-122.046;2023-07-24T03:24:48;17.33;;;4.32;;
66542;SDS011;53395;37.360;-122.046;2023-07-24T03:27:32;20.48;;;4.18;;
66542;SDS011;53395;37.360;-122.046;2023-07-24T03:30:17;17.35;;;4.50;;
66542;SDS011;53395;37.360;-122.046;2023-07-24T03:33:02;17.58;;;4.75;;
66542;SDS011;53395;37.360;-122.046;2023-07-24T03:35:46;19.48;;;4.50;;
66542;SDS011;53395;37.360;-122.046;2023-07-24T03:38:30;18.08;;;4.30;;
66542;SDS011;53395;37.360;-122.046;2023-07-24T03:41:15;20.02;;;4.07;;
66542;SDS011;53395;37.360;-122.046;2023-07-24T03:44:00;19.00;;;3.75;;
66542;SDS011;53395;37.360;-122.046;2023-07-24T03:46:44;22.55;;;4.45;;
66542;SDS011;53395;37.360;-122.046;2023-07-24T03:49:29;23.17;;;4.47;;
66542;SDS011;53395;37.360;-122.046;2023-07-24T03:52:13;19.38;;;4.40;;
66542;SDS011;53395;37.360;-122.046;2023-07-24T03:54:57;16.10;;;4.35;;
66542;SDS011;53395;37.360;-122.046;2023-07-24T03:57:41;19.42;;;4.93;;
66542;SDS011;53395;37.360;-122.046;2023-07-24T04:00:26;23.75;;;4.43;;
66542;SDS011;53395;37.360;-122.046;2023-07-24T04:03:11;25.80;;;5.10;;
66542;SDS011;53395;37.360;-122.046;2023-07-24T04:05:56;19.95;;;4.80;;
66542;SDS011;53395;37.360;-122.046;2023-07-24T04:08:41;24.48;;;4.75;;
66542;SDS011;53395;37.360;-122.046;2023-07-24T04:11:25;22.17;;;4.45;;
66542;SDS011;53395;37.360;-122.046;2023-07-24T04:14:10;19.98;;;4.38;;
66542;SDS011;53395;37.360;-122.046;2023-07-24T04:16:55;18.33;;;4.68;;
66542;SDS011;53395;37.360;-122.046;2023-07-24T04:19:39;16.90;;;4.10;;
66542;SDS011;53395;37.360;-122.046;2023-07-24T04:22:23;14.13;;;3.97;;
66542;SDS011;53395;37.360;-122.046;2023-07-24T04:25:08;23.52;;;4.95;;
66542;SDS011;53395;37.360;-122.046;2023-07-24T04:27:52;20.10;;;4.25;;
66542;SDS011;53395;37.360;-122.046;2023-07-24T04:30:37;21.70;;;4.80;;
66542;SDS011;53395;37.360;-122.046;2023-07-24T04:33:21;23.40;;;4.25;;
66542;SDS011;53395;37.360;-122.046;2023-07-24T04:36:10;24.77;;;4.72;;
66542;SDS011;53395;37.360;-122.046;2023-07-24T04:38:55;18.77;;;4.35;;
66542;SDS011;53395;37.360;-122.046;2023-07-24T04:41:39;28.10;;;5.90;;
66542;SDS011;53395;37.360;-122.046;2023-07-24T04:44:24;25.92;;;4.90;;
66542;SDS011;53395;37.360;-122.046;2023-07-24T04:47:08;17.42;;;4.10;;
66542;SDS011;53395;37.360;-122.046;2023-07-24T04:49:53;23.60;;;4.60;;
66542;SDS011;53395;37.360;-122.046;2023-07-24T04:52:38;19.27;;;3.78;;
66542;SDS011;53395;37.360;-122.046;2023-07-24T04:55:23;22.33;;;4.70;;
66542;SDS011;53395;37.360;-122.046;2023-07-24T04:58:08;17.08;;;3.97;;
66542;SDS011;53395;37.360;-122.046;2023-07-24T05:00:53;19.00;;;4.43;;
66542;SDS011;53395;37.360;-122.046;2023-07-24T05:03:37;26.80;;;5.13;;
66542;SDS011;53395;37.360;-122.046;2023-07-24T05:06:22;21.40;;;4.22;;
66542;SDS011;53395;37.360;-122.046;2023-07-24T05:09:07;17.90;;;3.85;;
66542;SDS011;53395;37.360;-122.046;2023-07-24T05:11:52;17.90;;;4.75;;
66542;SDS011;53395;37.360;-122.046;2023-07-24T05:14:36;19.63;;;4.07;;
66542;SDS011;53395;37.360;-122.046;2023-07-24T05:17:21;21.15;;;4.35;;
66542;SDS011;53395;37.360;-122.046;2023-07-24T05:20:05;15.32;;;4.22;;
66542;SDS011;53395;37.360;-122.046;2023-07-24T05:25:35;18.70;;;3.47;;
66542;SDS011;53395;37.360;-122.046;2023-07-24T05:28:19;26.20;;;5.55;;
66542;SDS011;53395;37.360;-122.046;2023-07-24T05:31:04;16.85;;;4.70;;
66542;SDS011;53395;37.360;-122.046;2023-07-24T05:33:48;20.80;;;4.50;;
66542;SDS011;53395;37.360;-122.046;2023-07-24T05:36:32;19.65;;;4.13;;
66542;SDS011;53395;37.360;-122.046;2023-07-24T05:39:17;16.08;;;4.13;;
66542;SDS011;53395;37.360;-122.046;2023-07-24T05:42:02;15.88;;;4.32;;
66542;SDS011;53395;37.360;-122.046;2023-07-24T05:44:46;21.20;;;4.28;;
66542;SDS011;53395;37.360;-122.046;2023-07-24T05:47:31;24.75;;;4.90;;
66542;SDS011;53395;37.360;-122.046;2023-07-24T05:50:15;21.55;;;4.38;;
66542;SDS011;53395;37.360;-122.046;2023-07-24T05:53:00;23.77;;;4.65;;
66542;SDS011;53395;37.360;-122.046;2023-07-24T05:55:45;17.33;;;4.38;;
66542;SDS011;53395;37.360;-122.046;2023-07-24T05:58:30;28.70;;;4.93;;
66542;SDS011;53395;37.360;-122.046;2023-07-24T06:01:14;17.13;;;4.68;;
66542;SDS011;53395;37.360;-122.046;2023-07-24T06:03:59;21.27;;;5.30;;
66542;SDS011;53395;37.360;-122.046;2023-07-24T06:06:44;23.38;;;4.53;;
66542;SDS011;53395;37.360;-122.046;2023-07-24T06:09:29;22.50;;;4.25;;
66542;SDS011;53395;37.360;-122.046;2023-07-24T06:12:14;19.58;;;4.47;;
66542;SDS011;53395;37.360;-122.046;2023-07-24T06:14:58;20.83;;;4.68;;
66542;SDS011;53395;37.360;-122.046;2023-07-24T06:17:42;19.20;;;4.55;;
66542;SDS011;53395;37.360;-122.046;2023-07-24T06:20:27;21.42;;;4.63;;
66542;SDS011;53395;37.360;-122.046;2023-07-24T06:23:12;18.67;;;3.88;;
66542;SDS011;53395;37.360;-122.046;2023-07-24T06:25:56;24.02;;;5.00;;
66542;SDS011;53395;37.360;-122.046;2023-07-24T06:28:41;17.30;;;3.80;;
66542;SDS011;53395;37.360;-122.046;2023-07-24T06:31:25;17.75;;;3.97;;
66542;SDS011;53395;37.360;-122.046;2023-07-24T06:34:09;18.80;;;4.10;;
66542;SDS011;53395;37.360;-122.046;2023-07-24T06:36:54;16.38;;;4.50;;
66542;SDS011;53395;37.360;-122.046;2023-07-24T06:39:39;15.60;;;4.13;;
66542;SDS011;53395;37.360;-122.046;2023-07-24T06:42:23;17.70;;;4.70;;
66542;SDS011;53395;37.360;-122.046;2023-07-24T06:45:07;22.90;;;5.00;;
66542;SDS011;53395;37.360;-122.046;2023-07-24T06:47:52;15.95;;;4.03;;
66542;SDS011;53395;37.360;-122.046;2023-07-24T06:50:37;20.92;;;4.25;;
66542;SDS011;53395;37.360;-122.046;2023-07-24T06:53:21;16.15;;;4.18;;
66542;SDS011;53395;37.360;-122.046;2023-07-24T06:56:06;22.17;;;5.40;;
66542;SDS011;53395;37.360;-122.046;2023-07-24T06:58:50;13.00;;;3.67;;
66542;SDS011;53395;37.360;-122.046;2023-07-24T07:01:35;18.65;;;4.22;;
66542;SDS011;53395;37.360;-122.046;2023-07-24T07:04:19;17.35;;;3.85;;
66542;SDS011;53395;37.360;-122.046;2023-07-24T07:07:04;23.20;;;4.55;;
66542;SDS011;53395;37.360;-122.046;2023-07-24T07:09:49;19.05;;;4.70;;
66542;SDS011;53395;37.360;-122.046;2023-07-24T07:12:33;19.77;;;4.07;;
66542;SDS011;53395;37.360;-122.046;2023-07-24T07:15:18;18.80;;;5.13;;
66542;SDS011;53395;37.360;-122.046;2023-07-24T07:18:02;23.45;;;4.60;;
66542;SDS011;53395;37.360;-122.046;2023-07-24T07:20:47;17.92;;;4.28;;
66542;SDS011;53395;37.360;-122.046;2023-07-24T07:23:32;21.05;;;4.45;;
66542;SDS011;53395;37.360;-122.046;2023-07-24T07:26:16;17.88;;;4.25;;
66542;SDS011;53395;37.360;-122.046;2023-07-24T07:29:01;21.63;;;4.30;;
66542;SDS011;53395;37.360;-122.046;2023-07-24T07:31:45;21.33;;;4.05;;
66542;SDS011;53395;37.360;-122.046;2023-07-24T07:34:30;24.00;;;4.70;;
66542;SDS011;53395;37.360;-122.046;2023-07-24T07:37:14;19.92;;;5.18;;
66542;SDS011;53395;37.360;-122.046;2023-07-24T07:39:59;21.60;;;4.47;;
66542;SDS011;53395;37.360;-122.046;2023-07-24T07:42:43;16.10;;;4.18;;
66542;SDS011;53395;37.360;-122.046;2023-07-24T07:45:28;18.25;;;4.53;;
66542;SDS011;53395;37.360;-122.046;2023-07-24T07:48:13;17.60;;;4.38;;
66542;SDS011;53395;37.360;-122.046;2023-07-24T07:50:58;15.10;;;4.25;;
66542;SDS011;53395;37.360;-122.046;2023-07-24T07:53:43;21.08;;;4.65;;
66542;SDS011;53395;37.360;-122.046;2023-07-24T07:56:27;24.13;;;5.28;;
66542;SDS011;53395;37.360;-122.046;2023-07-24T07:59:12;17.02;;;3.97;;
66542;SDS011;53395;37.360;-122.046;2023-07-24T08:01:56;17.20;;;4.18;;
66542;SDS011;53395;37.360;-122.046;2023-07-24T08:04:40;23.52;;;4.05;;
66542;SDS011;53395;37.360;-122.046;2023-07-24T08:07:24;18.50;;;4.22;;
66542;SDS011;53395;37.360;-122.046;2023-07-24T08:10:09;16.92;;;4.20;;
66542;SDS011;53395;37.360;-122.046;2023-07-24T08:12:54;21.95;;;5.50;;
66542;SDS011;53395;37.360;-122.046;2023-07-24T08:15:38;18.90;;;4.70;;
66542;SDS011;53395;37.360;-122.046;2023-07-24T08:18:23;25.48;;;4.85;;
66542;SDS011;53395;37.360;-122.046;2023-07-24T08:21:08;15.63;;;4.32;;
66542;SDS011;53395;37.360;-122.046;2023-07-24T08:23:52;17.10;;;3.95;;
66542;SDS011;53395;37.360;-122.046;2023-07-24T08:26:37;19.35;;;4.55;;
66542;SDS011;53395;37.360;-122.046;2023-07-24T08:29:22;19.40;;;4.40;;
66542;SDS011;53395;37.360;-122.046;2023-07-24T08:32:06;14.50;;;3.85;;
66542;SDS011;53395;37.360;-122.046;2023-07-24T08:34:51;24.23;;;5.55;;
66542;SDS011;53395;37.360;-122.046;2023-07-24T08:37:35;23.83;;;4.85;;
66542;SDS011;53395;37.360;-122.046;2023-07-24T08:40:19;14.68;;;4.13;;
66542;SDS011;53395;37.360;-122.046;2023-07-24T08:43:04;21.02;;;4.57;;
66542;SDS011;53395;37.360;-122.046;2023-07-24T08:45:49;15.27;;;4.20;;
66542;SDS011;53395;37.360;-122.046;2023-07-24T08:48:40;17.77;;;4.18;;
66542;SDS011;53395;37.360;-122.046;2023-07-24T08:51:25;14.93;;;4.25;;
66542;SDS011;53395;37.360;-122.046;2023-07-24T08:54:10;13.10;;;4.20;;
66542;SDS011;53395;37.360;-122.046;2023-07-24T08:56:55;16.23;;;4.25;;
66542;SDS011;53395;37.360;-122.046;2023-07-24T08:59:40;16.50;;;4.47;;
66542;SDS011;53395;37.360;-122.046;2023-07-24T09:02:25;14.80;;;4.03;;
66542;SDS011;53395;37.360;-122.046;2023-07-24T09:05:10;18.15;;;4.10;;
66542;SDS011;53395;37.360;-122.046;2023-07-24T09:07:55;17.08;;;4.18;;
66542;SDS011;53395;37.360;-122.046;2023-07-24T09:10:40;14.30;;;4.43;;
66542;SDS011;53395;37.360;-122.046;2023-07-24T09:13:24;16.63;;;3.90;;
66542;SDS011;53395;37.360;-122.046;2023-07-24T09:16:09;15.80;;;4.20;;
66542;SDS011;53395;37.360;-122.046;2023-07-24T09:18:54;22.60;;;4.60;;
66542;SDS011;53395;37.360;-122.046;2023-07-24T09:21:40;19.17;;;4.07;;
66542;SDS011;53395;37.360;-122.046;2023-07-24T09:24:26;15.45;;;3.85;;
66542;SDS011;53395;37.360;-122.046;2023-07-24T09:27:11;14.52;;;4.13;;
66542;SDS011;53395;37.360;-122.046;2023-07-24T09:29:56;15.20;;;4.15;;
66542;SDS011;53395;37.360;-122.046;2023-07-24T09:32:40;14.13;;;3.65;;
66542;SDS011;53395;37.360;-122.046;2023-07-24T09:35:25;14.25;;;3.92;;
66542;SDS011;53395;37.360;-122.046;2023-07-24T09:38:11;17.80;;;4.65;;
66542;SDS011;53395;37.360;-122.046;2023-07-24T09:40:56;16.52;;;4.30;;
66542;SDS011;53395;37.360;-122.046;2023-07-24T09:43:41;14.95;;;3.90;;
66542;SDS011;53395;37.360;-122.046;2023-07-24T09:46:26;19.08;;;3.97;;
66542;SDS011;53395;37.360;-122.046;2023-07-24T09:49:12;14.95;;;3.95;;
66542;SDS011;53395;37.360;-122.046;2023-07-24T09:51:56;13.15;;;4.07;;
66542;SDS011;53395;37.360;-122.046;2023-07-24T09:54:49;13.18;;;3.80;;
66542;SDS011;53395;37.360;-122.046;2023-07-24T09:57:35;16.10;;;4.15;;
66542;SDS011;53395;37.360;-122.046;2023-07-24T10:00:20;14.27;;;3.90;;
66542;SDS011;53395;37.360;-122.046;2023-07-24T10:03:05;22.10;;;4.10;;
66542;SDS011;53395;37.360;-122.046;2023-07-24T10:05:49;18.35;;;4.07;;
66542;SDS011;53395;37.360;-122.046;2023-07-24T10:08:34;17.42;;;3.95;;
66542;SDS011;53395;37.360;-122.046;2023-07-24T10:11:19;17.98;;;4.40;;
66542;SDS011;53395;37.360;-122.046;2023-07-24T10:14:04;19.80;;;4.68;;
66542;SDS011;53395;37.360;-122.046;2023-07-24T10:16:49;14.82;;;4.07;;
66542;SDS011;53395;37.360;-122.046;2023-07-24T10:19:39;16.70;;;4.43;;
66542;SDS011;53395;37.360;-122.046;2023-07-24T10:22:26;16.33;;;3.78;;
66542;SDS011;53395;37.360;-122.046;2023-07-24T10:25:12;16.65;;;4.00;;
66542;SDS011;53395;37.360;-122.046;2023-07-24T10:28:06;17.08;;;3.85;;
66542;SDS011;53395;37.360;-122.046;2023-07-24T10:31:02;16.17;;;4.20;;
66542;SDS011;53395;37.360;-122.046;2023-07-24T10:33:48;14.05;;;4.18;;
66542;SDS011;53395;37.360;-122.046;2023-07-24T10:36:34;14.65;;;3.60;;
66542;SDS011;53395;37.360;-122.046;2023-07-24T10:39:19;15.27;;;3.97;;
66542;SDS011;53395;37.360;-122.046;2023-07-24T10:42:05;17.95;;;4.10;;
66542;SDS011;53395;37.360;-122.046;2023-07-24T10:47:34;15.68;;;4.22;;
66542;SDS011;53395;37.360;-122.046;2023-07-24T10:50:19;14.65;;;4.10;;
66542;SDS011;53395;37.360;-122.046;2023-07-24T10:53:03;15.32;;;4.15;;
66542;SDS011;53395;37.360;-122.046;2023-07-24T10:55:48;15.63;;;4.20;;
66542;SDS011;53395;37.360;-122.046;2023-07-24T10:58:34;16.65;;;3.85;;
66542;SDS011;53395;37.360;-122.046;2023-07-24T11:01:19;21.48;;;4.60;;
66542;SDS011;53395;37.360;-122.046;2023-07-24T11:04:04;17.08;;;4.38;;
66542;SDS011;53395;37.360;-122.046;2023-07-24T11:06:52;15.85;;;3.92;;
66542;SDS011;53395;37.360;-122.046;2023-07-24T11:09:37;15.80;;;4.15;;
66542;SDS011;53395;37.360;-122.046;2023-07-24T11:12:24;14.63;;;4.28;;
66542;SDS011;53395;37.360;-122.046;2023-07-24T11:15:11;16.08;;;3.95;;
66542;SDS011;53395;37.360;-122.046;2023-07-24T11:17:55;21.20;;;4.63;;
66542;SDS011;53395;37.360;-122.046;2023-07-24T11:20:43;11.38;;;3.80;;
66542;SDS011;53395;37.360;-122.046;2023-07-24T11:23:28;15.23;;;4.32;;
66542;SDS011;53395;37.360;-122.046;2023-07-24T11:26:13;16.55;;;5.00;;
66542;SDS011;53395;37.360;-122.046;2023-07-24T11:28:58;14.10;;;4.25;;
66542;SDS011;53395;37.360;-122.046;2023-07-24T11:31:42;14.38;;;4.45;;
66542;SDS011;53395;37.360;-122.046;2023-07-24T11:34:26;15.02;;;4.10;;
66542;SDS011;53395;37.360;-122.046;2023-07-24T11:37:10;19.60;;;4.80;;
66542;SDS011;53395;37.360;-122.046;2023-07-24T11:39:56;18.15;;;4.13;;
66542;SDS011;53395;37.360;-122.046;2023-07-24T11:42:42;16.10;;;3.70;;
66542;SDS011;53395;37.360;-122.046;2023-07-24T11:45:27;16.23;;;4.32;;
66542;SDS011;53395;37.360;-122.046;2023-07-24T11:48:11;13.23;;;3.72;;
66542;SDS011;53395;37.360;-122.046;2023-07-24T11:50:56;16.00;;;3.95;;
66542;SDS011;53395;37.360;-122.046;2023-07-24T11:53:41;12.82;;;4.00;;
66542;SDS011;53395;37.360;-122.046;2023-07-24T11:56:26;11.90;;;3.85;;
66542;SDS011;53395;37.360;-122.046;2023-07-24T11:59:11;14.85;;;3.63;;
66542;SDS011;53395;37.360;-122.046;2023-07-24T12:01:55;16.70;;;4.28;;
66542;SDS011;53395;37.360;-122.046;2023-07-24T12:04:40;16.55;;;3.58;;
66542;SDS011;53395;37.360;-122.046;2023-07-24T12:07:35;13.27;;;3.63;;
66542;SDS011;53395;37.360;-122.046;2023-07-24T12:10:27;16.55;;;4.38;;
66542;SDS011;53395;37.360;-122.046;2023-07-24T12:13:11;15.98;;;3.70;;
66542;SDS011;53395;37.360;-122.046;2023-07-24T12:15:56;15.80;;;4.28;;
66542;SDS011;53395;37.360;-122.046;2023-07-24T12:18:40;16.10;;;3.92;;
66542;SDS011;53395;37.360;-122.046;2023-07-24T12:21:24;15.15;;;4.10;;
66542;SDS011;53395;37.360;-122.046;2023-07-24T12:24:09;15.77;;;3.63;;
66542;SDS011;53395;37.360;-122.046;2023-07-24T12:26:53;13.75;;;3.63;;
66542;SDS011;53395;37.360;-122.046;2023-07-24T12:29:38;12.13;;;3.38;;
66542;SDS011;53395;37.360;-122.046;2023-07-24T12:32:23;14.27;;;3.85;;
66542;SDS011;53395;37.360;-122.046;2023-07-24T12:35:08;16.48;;;4.60;;
66542;SDS011;53395;37.360;-122.046;2023-07-24T12:37:53;18.38;;;4.53;;
66542;SDS011;53395;37.360;-122.046;2023-07-24T12:40:37;19.10;;;4.70;;
66542;SDS011;53395;37.360;-122.046;2023-07-24T12:43:22;12.70;;;3.90;;
66542;SDS011;53395;37.360;-122.046;2023-07-24T12:46:06;12.75;;;4.00;;
66542;SDS011;53395;37.360;-122.046;2023-07-24T12:48:51;17.35;;;4.13;;
66542;SDS011;53395;37.360;-122.046;2023-07-24T12:51:35;16.58;;;3.78;;
66542;SDS011;53395;37.360;-122.046;2023-07-24T12:54:19;12.15;;;3.65;;
66542;SDS011;53395;37.360;-122.046;2023-07-24T12:57:06;13.50;;;3.85;;
66542;SDS011;53395;37.360;-122.046;2023-07-24T12:59:50;14.82;;;3.80;;
66542;SDS011;53395;37.360;-122.046;2023-07-24T13:02:35;10.93;;;4.15;;
66542;SDS011;53395;37.360;-122.046;2023-07-24T13:05:19;17.38;;;4.10;;
66542;SDS011;53395;37.360;-122.046;2023-07-24T13:08:04;12.13;;;3.45;;
66542;SDS011;53395;37.360;-122.046;2023-07-24T13:10:48;12.77;;;3.78;;
66542;SDS011;53395;37.360;-122.046;2023-07-24T13:13:33;15.00;;;3.60;;
66542;SDS011;53395;37.360;-122.046;2023-07-24T13:16:17;16.48;;;3.92;;
66542;SDS011;53395;37.360;-122.046;2023-07-24T13:19:02;13.43;;;3.70;;
66542;SDS011;53395;37.360;-122.046;2023-07-24T13:21:47;15.18;;;3.70;;
66542;SDS011;53395;37.360;-122.046;2023-07-24T13:24:31;19.67;;;4.32;;
66542;SDS011;53395;37.360;-122.046;2023-07-24T13:27:16;12.25;;;3.80;;
66542;SDS011;53395;37.360;-122.046;2023-07-24T13:30:00;15.48;;;4.38;;
66542;SDS011;53395;37.360;-122.046;2023-07-24T13:32:45;13.75;;;4.47;;
66542;SDS011;53395;37.360;-122.046;2023-07-24T13:35:30;16.40;;;3.97;;
66542;SDS011;53395;37.360;-122.046;2023-07-24T13:38:15;14.25;;;4.38;;
66542;SDS011;53395;37.360;-122.046;2023-07-24T13:41:00;17.98;;;4.68;;
66542;SDS011;53395;37.360;-122.046;2023-07-24T13:43:45;18.13;;;4.75;;
66542;SDS011;53395;37.360;-122.046;2023-07-24T13:46:30;20.10;;;4.55;;
66542;SDS011;53395;37.360;-122.046;2023-07-24T13:49:14;17.27;;;4.20;;
66542;SDS011;53395;37.360;-122.046;2023-07-24T13:51:59;18.27;;;4.38;;
66542;SDS011;53395;37.360;-122.046;2023-07-24T13:54:43;20.20;;;4.30;;
66542;SDS011;53395;37.360;-122.046;2023-07-24T13:57:27;9.93;;;3.40;;
66542;SDS011;53395;37.360;-122.046;2023-07-24T14:00:12;12.77;;;3.20;;
66542;SDS011;53395;37.360;-122.046;2023-07-24T14:02:57;8.85;;;2.55;;
66542;SDS011;53395;37.360;-122.046;2023-07-24T14:05:42;9.32;;;2.85;;
66542;SDS011;53395;37.360;-122.046;2023-07-24T14:08:26;10.43;;;2.85;;
66542;SDS011;53395;37.360;-122.046;2023-07-24T14:11:11;8.90;;;2.80;;
66542;SDS011;53395;37.360;-122.046;2023-07-24T14:13:55;7.78;;;2.72;;
66542;SDS011;53395;37.360;-122.046;2023-07-24T14:16:39;6.57;;;2.50;;
66542;SDS011;53395;37.360;-122.046;2023-07-24T14:19:23;6.35;;;2.17;;
66542;SDS011;53395;37.360;-122.046;2023-07-24T14:22:08;8.80;;;2.40;;
66542;SDS011;53395;37.360;-122.046;2023-07-24T14:24:52;7.20;;;2.20;;
66542;SDS011;53395;37.360;-122.046;2023-07-24T14:27:37;12.68;;;2.40;;
66542;SDS011;53395;37.360;-122.046;2023-07-24T14:30:21;9.57;;;2.40;;
66542;SDS011;53395;37.360;-122.046;2023-07-24T14:33:06;7.55;;;2.28;;
66542;SDS011;53395;37.360;-122.046;2023-07-24T14:35:50;8.00;;;2.40;;
66542;SDS011;53395;37.360;-122.046;2023-07-24T14:38:35;7.00;;;2.08;;
66542;SDS011;53395;37.360;-122.046;2023-07-24T14:41:19;6.72;;;2.00;;
66542;SDS011;53395;37.360;-122.046;2023-07-24T14:44:03;7.45;;;2.20;;
66542;SDS011;53395;37.360;-122.046;2023-07-24T14:46:48;6.43;;;2.40;;
66542;SDS011;53395;37.360;-122.046;2023-07-24T14:49:33;10.20;;;2.70;;
66542;SDS011;53395;37.360;-122.046;2023-07-24T14:52:17;7.03;;;2.60;;
66542;SDS011;53395;37.360;-122.046;2023-07-24T14:55:02;10.98;;;2.45;;
66542;SDS011;53395;37.360;-122.046;2023-07-24T14:57:47;10.38;;;2.08;;
66542;SDS011;53395;37.360;-122.046;2023-07-24T15:00:32;6.05;;;2.25;;
66542;SDS011;53395;37.360;-122.046;2023-07-24T15:03:16;8.23;;;2.42;;
66542;SDS011;53395;37.360;-122.046;2023-07-24T15:06:01;6.28;;;2.40;;
66542;SDS011;53395;37.360;-122.046;2023-07-24T15:08:49;5.07;;;2.05;;
66542;SDS011;53395;37.360;-122.046;2023-07-24T15:11:37;9.60;;;2.28;;
66542;SDS011;53395;37.360;-122.046;2023-07-24T15:14:21;9.63;;;2.30;;
66542;SDS011;53395;37.360;-122.046;2023-07-24T15:17:05;11.07;;;2.47;;
66542;SDS011;53395;37.360;-122.046;2023-07-24T15:22:35;8.18;;;2.75;;
66542;SDS011;53395;37.360;-122.046;2023-07-24T15:25:19;8.52;;;2.70;;
66542;SDS011;53395;37.360;-122.046;2023-07-24T15:28:04;10.60;;;2.35;;
66542;SDS011;53395;37.360;-122.046;2023-07-24T15:30:48;7.03;;;2.40;;
66542;SDS011;53395;37.360;-122.046;2023-07-24T15:33:35;7.00;;;2.00;;
66542;SDS011;53395;37.360;-122.046;2023-07-24T15:36:19;8.23;;;2.22;;
66542;SDS011;53395;37.360;-122.046;2023-07-24T15:39:04;12.00;;;2.20;;
66542;SDS011;53395;37.360;-122.046;2023-07-24T15:41:48;9.35;;;2.03;;
66542;SDS011;53395;37.360;-122.046;2023-07-24T15:44:33;8.07;;;2.13;;
66542;SDS011;53395;37.360;-122.046;2023-07-24T15:47:17;5.28;;;2.00;;
66542;SDS011;53395;37.360;-122.046;2023-07-24T15:50:02;8.25;;;1.90;;
66542;SDS011;53395;37.360;-122.046;2023-07-24T15:52:48;8.85;;;2.15;;
66542;SDS011;53395;37.360;-122.046;2023-07-24T15:55:33;7.18;;;1.95;;
66542;SDS011;53395;37.360;-122.046;2023-07-24T15:58:17;6.68;;;1.80;;
66542;SDS011;53395;37.360;-122.046;2023-07-24T16:01:02;7.68;;;2.40;;